EA1IEJ-11
43.32.33N 005.38.92W
IN73EM aprs.fi
zuletzt gehoert:
2023-02-05T07:01:57Z
zuerst gehoert:
2022-06-05T12:27:28Z

APRS Gijón/Xixón [IN73EM], 2 Stunde(n), EA1IEJ-11 [08:19:43, 0s].
EA1IEJ 43.32.33N 005.38.92WIN73EM 0.552km 296°WNW07:01:56ZMMDVM DMO 222.3400/222.3400 CC1(3EA1IEJ-11)
MMDVM MMDVM HS Hat 438.8500/438.8500 CC6(2EA1IEJ-1)
EA1DZR 43.31.47N 005.40.00WIN73DM 2.378km 235°SW07:01:48ZMMDVM DVMega 431.1000/431.1000 CC1(3EA1DZR-1)
MMDVM DMO 434.3500/434.3500 CC1(2EA1DZR-4)
MMDVM MMDVM HS Hat 432.2000/432.2000 CC2(2EA1DZR-2)
EA1FFA 43.31.53N 005.40.64WIN73DM 3.059km 247°WSW07:02:07ZMMDVM MMDVM HS Hat 438.8000/438.8000 CC1(3EA1FFA-1)
LEEL 43.32.98N 005.41.71WIN73DN 4.495km 289°WNW07:00:03ZHelipuerto de El Musel: LEAS 050600Z 12005KT 090V170 9999 OVC027 09/04 Q1039 NOSIG=
EA1FPN 43.32.38N 005.42.17WIN73DM 4.872km 274°W07:01:12ZMMDVM MMDVM HS Hat 439.8750/439.8750 CC1
EA4ACU 43.29.56N 005.38.92WIN73EL 4.896km 186°S07:02:37ZMMDVM MMDVM HS Hat 432.7000/432.7000 CC1(3EA4ACU-1)
EB1TK 43.32.22N 005.42.32WIN73DM 5.062km 271°W07:15:15ZWind 109°/005kn, Böen bis 010kn, Temp 11.11c, Regen 0.0mm, letzte 24h 0.0mm, seit 0h 0.0mm, Baro 1041.8h, Hum: 78%(3EB1TK-13)
EB1GEM 43.30.00N 005.36.07WIN73EM 5.250km 141°SE07:15:05ZWX3in1Plus2.0 U=13.3V,T=??.?C/??.?F(3EB1GEM-3)
ED1ZAE 43.27.99N 005.40.54WIN73DL 8.247km 199°SSW07:18:37ZWIDE3-3 ESAS3-3 IN73DL WWW.EA1URG.ORG(3ED1ZAE-3)
ED1ZAS 43.27.52N 005.40.17WIN73DL 8.922km 194°SSW07:18:35ZRD985 438.2250/430.6250 CC1
EA1JW 43.31.35N 005.28.83WIN73GM 13.155km 97°E07:01:40ZMMDVM MMDVM HS Hat 436.5000/436.5000 CC1(3EA1JW-3)
EA1IPU 43.26.21N 005.46.62WIN73CK 15.503km 224°SW07:01:49ZMMDVM MMDVM HS Hat 439.8000/439.8000 CC1(3EA1IPU-1)
EA1FHR 43.28.72N 005.26.41WIN73GL 17.532km 111°ESE07:19:02ZMMDVM MMDVM HS Hat 439.1500/439.1500 CC1
EA1ABW 43.24.77N 005.47.77WIN73CJ 18.518km 222°SW07:01:27ZMMDVM MMDVM HS Hat 439.8250/439.8250 CC1(3EA1ABW-2)
LEGM 43.26.15N 005.49.84WIN73CK 18.854km 234°SW07:00:03ZHelipuerto de La Morgal (123.500MHz): LEAS 050600Z 12005KT 090V170 9999 OVC027 09/04 Q1039 NOSIG=
LEMR 43.25.83N 005.49.60WIN73CK 18.980km 232°SW07:00:04ZAerodromo de la Morgal (123.500MHz): LEAS 050600Z 12005KT 090V170 9999 OVC027 09/04 Q1039 NOSIG=
EA1FLQ 43.22.00N 005.36.35WIN73EI 19.125km 171°S07:19:16ZMMDVM DVMega 430.9750/430.9750 CC1
LEHU 43.22.63N 005.49.57WIN73CJ 23.116km 220°SW07:00:04ZHelipuerto del HUCA: LEAS 050600Z 12005KT 090V170 9999 OVC027 09/04 Q1039 NOSIG=
EA1DZL 43.33.56N 005.55.78WIN73AN 23.275km 276°W07:03:12ZMMDVM MMDVM HS Hat 438.8000/438.8000 CC1(3EA1DZL-1)
ED1ZAY 43.29.47N 005.56.54WIN73AL 24.704km 258°WSW07:18:39ZRD625 438.3000/430.7000 CC1
ED1ZAU 43.23.04N 005.52.75WIN73BJ 25.556km 228°SW07:18:35ZRD625 438.5000/430.9000 CC1
EA1JBU 43.21.85N 005.51.13WIN73BI 25.581km 222°SW07:00:07ZEA1JBU(3EA1JBU-1)
33D00 43.21.63N 005.51.13WIN73BI 25.880km 221°SW07:01:42Z33-D-00 Protección Civil REMER / Delegación del Gobierno en Asturias
EA1JAY 43.21.54N 005.51.34WIN73BI 26.200km 221°SW07:00:07ZEA1JAY(3EA1JAY-2)
434.525MHz Nodo TETRA DMO(2EA1JAY-4)
EA1HJA 43.21.47N 005.52.09WIN73BI 26.955km 223°SW07:16:02ZEA1HJA@URE.ES(3EA1HJA-2)
EA1HJA@URE.ES(2EA1HJA)
EA1L 43.20.37N 005.51.13WIN73BI 27.675km 218°SW07:15:04ZWind 144°/004kn, Böen bis 007kn, Temp 6.67c, Regen 0.0mm, letzte 24h 0.0mm, seit 0h 0.0mm, Baro 1036.8h, Hum: 81%(3EA1L-13)
EA1HWX 43.19.29N 005.50.96WIN73BH 29.177km 215°SW07:02:09ZDMO - UHF 439.7250/431.0000 CC11(3EA1HWX-2)
EA1JBE 43.30.90N 005.16.15WIN73IM 30.193km 94°E07:15:04ZDMO - UHF 439.7250/431.0000 CC11(3EA1JBE-13)
MAIN QTH http://qrz.com/db/ea1jbe(2EA1JBE-1)
EA1IMW 43.14.36N 005.46.93WIN73CF 34.925km 199°SSW07:01:50ZGRUPO RADIO GALENA (GRG) 430.4500/430.4500 CC1(3EA1IMW-1)
EB1DGC 43.12.60N 005.45.59WIN73CF 37.535km 195°SSW07:19:05ZMMDVM MMDVM HS Hat 433.4500/433.4500 CC1
EA1HWA 43.12.00N 005.47.40WIN73CE 39.278km 198°SSW07:19:29ZMMDVM MMDVM HS Hat 433.4500/433.4500 CC1
EA1AYL 43.29.44N 006.09.04WIN63WL 41.300km 263°W07:19:12ZMMDVM MMDVM HS Hat 433.0750/433.0750 CC1
ED1ZAD 43.07.90N 005.38.52WIN73ED 45.005km 180°S07:11:15ZED1ZAD-3 APRS Digi/Igate(3ED1ZAD-3)
ED1ZBF 43.19.16N 005.06.74WIN73KH 49.135km 119°ESE07:18:37ZRD625 438.4750/430.8750 CC1

aprs.pl 5.0.011w DL3EL © 2006-2021 [10398437]